Time;durP1;ratioP1;P1;durP2;ratioP2;P2;SDS_P1;SDS_P2;PMS_P1;PMS_P2;Temp;Humidity;BMP_temperature;BMP_pressure;BME280_temperature;BME280_humidity;BME280_pressure;Samples;Min_cycle;Max_cycle;Signal;HPM_P1;HPM_P2
2023/10/13 00:00:35;;;;;;;8.60;1.58;;;;;;;10.42;nan;100609.16;2082440;28;20030;-73
2023/10/13 00:01:37;;;;;;;11.77;1.83;;;;;;;10.41;nan;100607.56;2099304;28;20024;-73
2023/10/13 00:02:43;;;;;;;8.18;1.58;;;;;;;10.41;nan;100604.88;2106392;28;20810;-74
2023/10/13 00:03:44;;;;;;;9.10;1.65;;;;;;;10.39;nan;100613.19;2092511;28;20041;-73
2023/10/13 00:04:49;;;;;;;11.07;1.90;;;;;;;10.36;nan;100608.34;2098299;28;20036;-73
2023/10/13 00:05:52;;;;;;;8.95;1.58;;;;;;;10.35;nan;100614.81;2098665;28;20847;-73
2023/10/13 00:07:02;;;;;;;9.15;1.30;;;;;;;10.33;nan;100608.91;2098024;28;20155;-74
2023/10/13 00:08:05;;;;;;;6.55;1.20;;;;;;;10.32;nan;100615.38;2106395;28;20095;-73
2023/10/13 00:09:14;;;;;;;9.00;1.40;;;;;;;10.31;nan;100607.56;2106296;28;20152;-73
2023/10/13 00:10:18;;;;;;;8.82;1.33;;;;;;;10.28;nan;100608.94;2106798;28;20865;-73
2023/10/13 00:11:21;;;;;;;11.68;1.73;;;;;;;10.28;nan;100616.22;2106684;28;20083;-73
2023/10/13 00:12:26;;;;;;;5.28;1.65;;;;;;;10.27;nan;100607.31;2090649;28;20902;-73
2023/10/13 00:13:30;;;;;;;8.05;1.60;;;;;;;10.26;nan;100611.09;2097266;28;20099;-73
2023/10/13 00:14:35;;;;;;;10.32;1.98;;;;;;;10.23;nan;100608.94;2106124;28;20036;-73
2023/10/13 00:15:59;;;;;;;9.35;1.83;;;;;;;10.24;nan;100613.22;2081691;28;20038;-73
2023/10/13 00:17:07;;;;;;;5.18;1.05;;;;;;;10.25;nan;100604.09;2090503;28;20805;-74
2023/10/13 00:18:12;;;;;;;10.35;1.50;;;;;;;10.28;nan;100608.16;2107298;27;20088;-74
2023/10/13 00:19:46;;;;;;;9.57;1.33;;;;;;;10.27;nan;100607.31;2097965;28;20036;-74
2023/10/13 00:20:51;;;;;;;8.35;1.58;;;;;;;10.29;nan;100605.19;2101455;28;20140;-74
2023/10/13 00:22:10;;;;;;;7.28;1.48;;;;;;;10.22;nan;100601.97;2101218;28;20494;-74
2023/10/13 00:23:15;;;;;;;7.85;1.63;;;;;;;10.25;nan;100608.66;2107707;28;20848;-74
2023/10/13 00:24:23;;;;;;;8.30;1.35;;;;;;;10.23;nan;100622.38;2107796;28;20025;-75
2023/10/13 00:25:31;;;;;;;6.80;1.33;;;;;;;10.25;nan;100617.53;2091908;28;20036;-74
2023/10/13 00:26:36;;;;;;;5.63;1.60;;;;;;;10.25;nan;100614.84;2101037;28;20048;-73
2023/10/13 00:27:41;;;;;;;9.60;1.38;;;;;;;10.26;nan;100619.16;2099096;28;20025;-74
2023/10/13 00:28:46;;;;;;;6.70;1.20;;;;;;;10.27;nan;100617.28;2098784;28;20043;-72
2023/10/13 00:29:50;;;;;;;11.43;1.25;;;;;;;10.26;nan;100613.78;2107533;28;20827;-74
2023/10/13 00:31:00;;;;;;;9.15;1.48;;;;;;;10.24;nan;100628.53;2083047;28;20987;-75
2023/10/13 00:32:11;;;;;;;8.38;1.67;;;;;;;10.20;nan;100629.09;2078727;28;20853;-74
2023/10/13 00:33:14;;;;;;;8.23;1.20;;;;;;;10.18;nan;100625.88;2076877;28;20031;-73
2023/10/13 00:34:28;;;;;;;9.93;1.52;;;;;;;10.16;nan;100630.72;2089595;28;20033;-72
2023/10/13 00:35:36;;;;;;;13.75;2.75;;;;;;;10.14;nan;100626.69;2100869;28;20197;-74
2023/10/13 00:38:16;;;;;;;12.18;1.85;;;;;;;10.11;nan;100625.34;2094707;28;20076;-73
2023/10/13 00:39:18;;;;;;;7.72;1.60;;;;;;;10.10;nan;100621.06;2096228;28;20041;-73
2023/10/13 00:41:52;;;;;;;7.78;1.40;;;;;;;10.12;nan;100618.91;2116369;28;20031;-74
2023/10/13 00:42:53;;;;;;;6.10;1.50;;;;;;;10.08;nan;100615.16;2107571;28;20040;-74
2023/10/13 00:44:16;;;;;;;7.32;1.48;;;;;;;10.10;nan;100613.00;2098368;28;20878;-74
2023/10/13 00:45:18;;;;;;;9.68;1.65;;;;;;;10.09;nan;100610.59;2093956;28;20029;-75
2023/10/13 00:46:25;;;;;;;14.20;1.95;;;;;;;10.08;nan;100619.72;2091786;28;20029;-75
2023/10/13 00:48:54;;;;;;;9.43;1.80;;;;;;;10.03;nan;100612.50;2099884;28;20025;-75
2023/10/13 00:49:57;;;;;;;13.38;1.70;;;;;;;10.02;nan;100610.06;2101577;28;20095;-74
2023/10/13 00:51:06;;;;;;;8.75;1.80;;;;;;;9.95;nan;100608.47;2091326;28;20072;-75
2023/10/13 00:52:10;;;;;;;12.25;2.05;;;;;;;9.98;nan;100616.00;2084621;28;20073;-74
2023/10/13 00:53:12;;;;;;;8.18;1.30;;;;;;;10.02;nan;100620.81;2091683;28;20056;-75
2023/10/13 00:54:18;;;;;;;6.28;1.50;;;;;;;10.03;nan;100617.06;2107426;28;20028;-75
2023/10/13 00:55:22;;;;;;;7.93;1.50;;;;;;;10.01;nan;100616.53;2100017;28;20108;-75
2023/10/13 00:56:28;;;;;;;11.00;2.10;;;;;;;10.00;nan;100620.31;2099721;28;20032;-75
2023/10/13 00:57:30;;;;;;;11.98;1.60;;;;;;;10.00;nan;100614.94;2091218;28;20036;-75
2023/10/13 00:58:39;;;;;;;8.88;1.48;;;;;;;9.91;nan;100607.41;2082700;28;20161;-75
2023/10/13 00:59:42;;;;;;;9.68;1.38;;;;;;;9.93;nan;100613.34;2092976;28;20037;-75
2023/10/13 01:00:48;;;;;;;12.35;1.58;;;;;;;9.91;nan;100615.47;2091270;28;20036;-74
2023/10/13 01:01:55;;;;;;;8.30;1.95;;;;;;;9.90;nan;100619.25;2091266;28;20966;-75
2023/10/13 01:02:57;;;;;;;8.57;2.03;;;;;;;9.88;nan;100616.03;2100861;28;20074;-75
2023/10/13 01:03:59;;;;;;;7.57;1.80;;;;;;;9.85;nan;100621.94;2098354;28;20053;-74
2023/10/13 01:05:02;;;;;;;9.13;2.25;;;;;;;9.82;nan;100622.47;2090938;28;20904;-74
2023/10/13 01:06:06;;;;;;;8.77;1.73;;;;;;;9.82;nan;100622.47;2104670;28;20028;-74
2023/10/13 01:07:11;;;;;;;9.75;1.60;;;;;;;9.80;nan;100619.25;2098327;28;20828;-74
2023/10/13 01:08:15;;;;;;;8.65;1.90;;;;;;;9.78;nan;100616.03;2100710;28;20033;-73
2023/10/13 01:09:17;;;;;;;6.07;2.10;;;;;;;9.79;nan;100616.84;2107218;28;20041;-73
2023/10/13 01:10:25;;;;;;;10.05;2.53;;;;;;;9.78;nan;100616.03;2090776;28;20084;-73
2023/10/13 01:11:31;;;;;;;7.82;1.80;;;;;;;9.79;nan;100614.97;2100314;28;20032;-74
2023/10/13 01:12:33;;;;;;;5.80;2.20;;;;;;;9.80;nan;100619.25;2099262;28;20033;-74
2023/10/13 01:13:37;;;;;;;6.47;1.55;;;;;;;9.80;nan;100618.44;2082759;28;20037;-74
2023/10/13 01:14:44;;;;;;;6.05;1.92;;;;;;;9.82;nan;100610.94;2091501;28;20025;-74
2023/10/13 01:15:46;;;;;;;10.52;2.22;;;;;;;9.81;nan;100610.13;2091406;28;20037;-74
2023/10/13 01:16:52;;;;;;;7.35;1.88;;;;;;;9.81;nan;100612.81;2083013;28;20042;-73
2023/10/13 01:17:56;;;;;;;12.35;2.00;;;;;;;9.80;nan;100618.44;2091930;28;20768;-73
2023/10/13 01:19:04;;;;;;;8.10;2.67;;;;;;;9.73;nan;100608.00;2099353;28;20029;-75
2023/10/13 01:20:11;;;;;;;9.80;2.78;;;;;;;9.75;nan;100616.59;2091978;28;20033;-74
2023/10/13 01:21:19;;;;;;;12.40;1.90;;;;;;;9.72;nan;100620.63;2084159;28;20030;-73
2023/10/13 01:22:23;;;;;;;6.88;1.88;;;;;;;9.70;nan;100620.06;2084242;28;20029;-73
2023/10/13 01:23:28;;;;;;;10.30;2.28;;;;;;;9.71;nan;100620.91;2083026;28;20018;-74
2023/10/13 01:24:36;;;;;;;5.90;1.90;;;;;;;9.70;nan;100624.63;2083662;28;20026;-73
2023/10/13 01:25:40;;;;;;;9.73;1.88;;;;;;;9.69;nan;100621.16;2075683;28;20030;-74
2023/10/13 01:26:42;;;;;;;11.65;2.13;;;;;;;9.69;nan;100628.41;2083626;28;20034;-74
2023/10/13 01:27:48;;;;;;;12.60;1.98;;;;;;;9.69;nan;100623.03;2099104;28;20048;-74
2023/10/13 01:28:51;;;;;;;10.70;1.63;;;;;;;9.68;nan;100616.88;2091105;28;20038;-74
2023/10/13 01:29:58;;;;;;;14.57;2.03;;;;;;;9.72;nan;100622.50;2073806;28;20880;-74
2023/10/13 01:31:01;;;;;;;8.52;1.40;;;;;;;9.71;nan;100618.22;2099504;28;20037;-73
2023/10/13 01:32:04;;;;;;;10.27;1.98;;;;;;;9.70;nan;100630.81;2107157;28;20037;-73
2023/10/13 01:33:08;;;;;;;10.50;1.70;;;;;;;9.68;nan;100618.75;2090718;28;20029;-73
2023/10/13 01:34:12;;;;;;;9.45;2.10;;;;;;;9.65;nan;100616.63;2091371;28;20030;-73
2023/10/13 01:35:15;;;;;;;11.10;1.63;;;;;;;9.61;nan;100615.53;2090865;28;20037;-73
2023/10/13 01:36:20;;;;;;;6.10;1.63;;;;;;;9.59;nan;100623.06;2091640;28;20033;-74
2023/10/13 01:37:27;;;;;;;6.05;1.73;;;;;;;9.58;nan;100621.44;2090023;28;20041;-74
2023/10/13 01:38:33;;;;;;;6.57;1.90;;;;;;;9.56;nan;100613.66;2091987;28;20049;-72
2023/10/13 01:39:36;;;;;;;10.55;1.58;;;;;;;9.56;nan;100612.88;2091061;28;20052;-73
2023/10/13 01:40:38;;;;;;;12.02;1.92;;;;;;;9.55;nan;100617.41;2090781;28;20072;-72
2023/10/13 01:41:40;;;;;;;8.48;1.42;;;;;;;9.57;nan;100622.50;2099165;28;20076;-72
2023/10/13 01:42:42;;;;;;;9.02;1.98;;;;;;;9.55;nan;100621.97;2082282;28;20054;-72
2023/10/13 01:43:44;;;;;;;7.38;1.92;;;;;;;9.56;nan;100618.22;2090906;28;20950;-72
2023/10/13 01:44:49;;;;;;;6.28;1.52;;;;;;;9.55;nan;100622.78;2095014;28;20100;-72
2023/10/13 01:45:50;;;;;;;9.00;1.70;;;;;;;9.56;nan;100623.59;2091111;28;20072;-72
2023/10/13 01:46:52;;;;;;;10.32;2.25;;;;;;;9.55;nan;100630.03;2098987;28;20045;-73
2023/10/13 01:47:53;;;;;;;8.65;1.50;;;;;;;9.55;nan;100621.97;2098777;28;20110;-73
2023/10/13 01:48:57;;;;;;;8.93;1.52;;;;;;;9.53;nan;100624.94;2090394;28;20144;-73
2023/10/13 01:50:06;;;;;;;13.32;1.92;;;;;;;9.50;nan;100623.59;2091378;28;20976;-73
2023/10/13 01:51:11;;;;;;;9.48;1.48;;;;;;;9.50;nan;100630.84;2102265;28;20953;-73
2023/10/13 01:52:15;;;;;;;8.90;1.75;;;;;;;9.45;nan;100634.31;2098735;28;20765;-73
2023/10/13 01:53:20;;;;;;;11.35;2.10;;;;;;;9.43;nan;100633.78;2099898;28;20915;-73
2023/10/13 01:54:24;;;;;;;13.70;1.70;;;;;;;9.40;nan;100625.47;2107256;28;20855;-73
2023/10/13 01:55:28;;;;;;;7.28;1.55;;;;;;;9.40;nan;100628.16;2099226;28;20122;-73
2023/10/13 01:56:30;;;;;;;9.68;1.60;;;;;;;9.36;nan;100627.88;2107819;28;20063;-73
2023/10/13 01:57:34;;;;;;;9.02;1.63;;;;;;;9.38;nan;100630.31;2098504;28;20946;-73
2023/10/13 01:58:42;;;;;;;17.80;1.83;;;;;;;9.37;nan;100632.19;2099729;28;20934;-73
2023/10/13 01:59:51;;;;;;;10.75;2.10;;;;;;;9.36;nan;100627.88;2099910;28;20025;-74
2023/10/13 02:00:56;;;;;;;5.43;1.45;;;;;;;9.37;nan;100626.81;2098753;28;20859;-73
2023/10/13 02:02:01;;;;;;;10.77;1.67;;;;;;;9.37;nan;100626.81;2093239;28;20199;-74
2023/10/13 02:03:07;;;;;;;9.70;1.98;;;;;;;9.37;nan;100626.03;2099100;28;20037;-73
2023/10/13 02:04:10;;;;;;;16.88;3.33;;;;;;;9.36;nan;100625.19;2099148;28;20947;-74
2023/10/13 02:05:16;;;;;;;6.35;1.55;;;;;;;9.38;nan;100627.63;2100310;28;20063;-74
2023/10/13 02:06:23;;;;;;;8.95;1.85;;;;;;;9.38;nan;100620.38;2106692;28;20037;-73
2023/10/13 02:07:29;;;;;;;9.65;1.75;;;;;;;9.37;nan;100626.81;2100500;28;20059;-73
2023/10/13 02:08:39;;;;;;;11.07;2.10;;;;;;;9.39;nan;100629.22;2099702;28;20195;-73
2023/10/13 02:09:42;;;;;;;10.93;2.15;;;;;;;9.36;nan;100619.81;2092600;28;20034;-73
2023/10/13 02:10:45;;;;;;;9.63;1.70;;;;;;;9.35;nan;100620.09;2107439;28;20153;-74
2023/10/13 02:11:54;;;;;;;13.70;1.92;;;;;;;9.34;nan;100624.69;2106970;28;20029;-74
2023/10/13 02:12:56;;;;;;;5.95;1.42;;;;;;;9.35;nan;100625.47;2101208;28;20029;-73
2023/10/13 02:14:00;;;;;;;14.55;2.13;;;;;;;9.36;nan;100633.25;2090557;28;20033;-74
2023/10/13 02:15:04;;;;;;;9.20;1.70;;;;;;;9.37;nan;100626.81;2091589;28;20036;-74
2023/10/13 02:16:07;;;;;;;10.77;2.03;;;;;;;9.40;nan;100631.66;2083229;28;20036;-74
2023/10/13 02:17:16;;;;;;;8.52;1.83;;;;;;;9.42;nan;100634.06;2082384;28;20077;-74
2023/10/13 02:18:27;;;;;;;9.15;1.70;;;;;;;9.44;nan;100631.91;2092758;28;20037;-74
2023/10/13 02:19:30;;;;;;;8.68;1.80;;;;;;;9.45;nan;100630.84;2100291;28;20039;-73
2023/10/13 02:20:42;;;;;;;20.98;2.50;;;;;;;9.45;nan;100636.19;2082222;28;20037;-73
2023/10/13 02:21:44;;;;;;;9.95;1.90;;;;;;;9.44;nan;100638.09;2085227;28;20879;-73
2023/10/13 02:22:50;;;;;;;11.77;1.73;;;;;;;9.44;nan;100637.28;2082727;28;20026;-73
2023/10/13 02:24:00;;;;;;;8.88;1.95;;;;;;;9.42;nan;100647.47;2098817;28;20048;-73
2023/10/13 02:25:06;;;;;;;10.27;2.08;;;;;;;9.41;nan;100638.63;2083279;28;20033;-73
2023/10/13 02:26:50;;;;;;;10.82;1.50;;;;;;;9.38;nan;100644.53;2085795;28;20033;-73
2023/10/13 02:27:40;;;;;;;8.80;1.77;;;;;;;9.38;nan;100643.72;2097415;28;20837;-72
2023/10/13 02:28:45;;;;;;;11.13;1.90;;;;;;;9.37;nan;100648.28;2099564;28;20033;-72
2023/10/13 02:29:49;;;;;;;9.35;1.88;;;;;;;9.35;nan;100639.69;2081796;28;20974;-72
2023/10/13 02:30:53;;;;;;;8.07;1.60;;;;;;;9.37;nan;100642.13;2089966;28;20033;-73
2023/10/13 02:32:04;;;;;;;11.25;1.65;;;;;;;9.38;nan;100649.88;2085568;28;20073;-73
2023/10/13 02:33:06;;;;;;;10.63;1.60;;;;;;;9.35;nan;100650.44;2091154;28;20853;-72
2023/10/13 02:34:09;;;;;;;12.50;1.70;;;;;;;9.36;nan;100654.72;2090537;28;20879;-72
2023/10/13 02:35:15;;;;;;;12.80;1.85;;;;;;;9.35;nan;100655.78;2098568;28;20025;-72
2023/10/13 02:36:22;;;;;;;4.82;1.48;;;;;;;9.37;nan;100650.97;2098292;28;20041;-72
2023/10/13 02:37:24;;;;;;;9.20;1.48;;;;;;;9.36;nan;100645.84;2083610;28;20073;-72
2023/10/13 02:38:28;;;;;;;12.10;1.83;;;;;;;9.35;nan;100650.44;2081872;28;20034;-72
2023/10/13 02:39:36;;;;;;;10.90;1.42;;;;;;;9.35;nan;100650.44;2082975;28;20052;-72
2023/10/13 02:40:40;;;;;;;8.70;1.55;;;;;;;9.35;nan;100655.78;2092461;28;20077;-72
2023/10/13 02:41:48;;;;;;;7.43;1.30;;;;;;;9.36;nan;100651.22;2099401;28;20044;-72
2023/10/13 02:42:49;;;;;;;11.25;1.60;;;;;;;9.34;nan;100648.03;2107090;28;20020;-73
2023/10/13 02:43:52;;;;;;;8.23;1.65;;;;;;;9.34;nan;100643.47;2090411;28;20036;-72
2023/10/13 02:44:57;;;;;;;10.98;1.92;;;;;;;9.35;nan;100645.06;2081430;28;20160;-74
2023/10/13 02:45:59;;;;;;;9.63;1.88;;;;;;;9.33;nan;100649.91;2074501;28;20034;-74
2023/10/13 02:47:00;;;;;;;8.50;1.40;;;;;;;9.32;nan;100648.28;2082679;28;21026;-74
2023/10/13 02:48:12;;;;;;;15.25;2.25;;;;;;;9.34;nan;100646.13;2099032;28;20795;-73
2023/10/13 02:49:19;;;;;;;4.85;1.25;;;;;;;9.32;nan;100648.28;2100130;28;20863;-73
2023/10/13 02:50:24;;;;;;;15.65;2.15;;;;;;;9.30;nan;100639.72;2090167;28;20029;-73
2023/10/13 02:51:35;;;;;;;9.93;1.83;;;;;;;9.28;nan;100645.31;2092795;28;20100;-72
2023/10/13 02:52:41;;;;;;;5.93;1.60;;;;;;;9.26;nan;100658.19;2113715;28;20953;-73
2023/10/13 02:53:49;;;;;;;11.38;1.98;;;;;;;9.25;nan;100661.97;2109149;28;20025;-72
2023/10/13 02:54:51;;;;;;;9.25;1.80;;;;;;;9.23;nan;100665.97;2099668;28;20934;-72
2023/10/13 02:55:55;;;;;;;11.25;1.65;;;;;;;9.20;nan;100653.88;2081328;28;20864;-72
2023/10/13 02:56:57;;;;;;;7.05;1.17;;;;;;;9.19;nan;100659.53;2091407;28;20022;-72
2023/10/13 02:57:58;;;;;;;7.38;1.35;;;;;;;9.17;nan;100659.78;2081914;28;20045;-71
2023/10/13 02:59:04;;;;;;;7.70;2.13;;;;;;;9.18;nan;100660.63;2082267;28;20164;-72
2023/10/13 03:00:17;;;;;;;10.05;1.60;;;;;;;9.17;nan;100648.25;2095097;28;20838;-72
2023/10/13 03:01:20;;;;;;;10.45;1.50;;;;;;;9.16;nan;100647.47;2100260;28;20804;-72
2023/10/13 03:02:25;;;;;;;10.40;1.45;;;;;;;9.14;nan;100644.25;2090099;28;20880;-72
2023/10/13 03:03:29;;;;;;;5.50;1.20;;;;;;;9.15;nan;100639.69;2091289;28;20056;-73
2023/10/13 03:04:33;;;;;;;10.80;1.45;;;;;;;9.17;nan;100637.53;2106917;28;20067;-72
2023/10/13 03:05:38;;;;;;;8.18;2.00;;;;;;;9.18;nan;100636.47;2106711;28;20025;-72
2023/10/13 03:06:40;;;;;;;9.52;1.60;;;;;;;9.18;nan;100641.84;2093733;28;20133;-72
2023/10/13 03:07:45;;;;;;;11.57;1.85;;;;;;;9.19;nan;100638.06;2090206;28;20087;-72
2023/10/13 03:08:46;;;;;;;7.82;2.05;;;;;;;9.17;nan;100648.25;2098705;28;20819;-74
2023/10/13 03:09:52;;;;;;;8.98;1.70;;;;;;;9.17;nan;100645.56;2090019;28;20115;-73
2023/10/13 03:10:54;;;;;;;9.30;2.95;;;;;;;9.13;nan;100645.31;2083493;28;20034;-73
2023/10/13 03:11:56;;;;;;;9.40;3.03;;;;;;;9.12;nan;100649.06;2099007;28;20052;-73
2023/10/13 03:12:59;;;;;;;11.20;1.88;;;;;;;9.10;nan;100647.72;2106910;28;20040;-73
2023/10/13 03:14:06;;;;;;;9.35;1.90;;;;;;;9.09;nan;100648.81;2098265;28;20985;-73
2023/10/13 03:15:22;;;;;;;10.70;1.70;;;;;;;9.09;nan;100651.47;2088690;28;20832;-73
2023/10/13 03:16:24;;;;;;;7.00;1.63;;;;;;;9.08;nan;100657.91;2098172;28;20966;-73
2023/10/13 03:17:35;;;;;;;9.60;1.60;;;;;;;9.07;nan;100658.97;2081604;28;20074;-74
2023/10/13 03:18:38;;;;;;;10.07;1.73;;;;;;;9.09;nan;100667.56;2094036;28;20025;-74
2023/10/13 03:19:46;;;;;;;7.60;1.80;;;;;;;9.08;nan;100655.22;2107171;28;20040;-75
2023/10/13 03:20:56;;;;;;;8.35;2.00;;;;;;;9.07;nan;100658.97;2082719;28;20944;-74
2023/10/13 03:22:09;;;;;;;15.73;1.90;;;;;;;9.07;nan;100658.97;2092917;28;20025;-75
2023/10/13 03:23:12;;;;;;;6.03;1.40;;;;;;;9.07;nan;100664.34;2099648;28;20763;-74
2023/10/13 03:24:14;;;;;;;12.20;1.33;;;;;;;9.08;nan;100658.72;2087204;28;20045;-74
2023/10/13 03:25:23;;;;;;;7.60;1.55;;;;;;;9.05;nan;100662.75;2082825;28;20153;-74
2023/10/13 03:26:29;;;;;;;8.85;1.60;;;;;;;9.04;nan;100663.78;2100978;28;20029;-74
2023/10/13 03:27:40;;;;;;;5.20;1.20;;;;;;;9.05;nan;100664.63;2090089;28;20148;-74
2023/10/13 03:28:42;;;;;;;10.00;1.80;;;;;;;9.04;nan;100666.47;2092734;28;20029;-74
2023/10/13 03:29:43;;;;;;;8.32;1.88;;;;;;;9.04;nan;100661.13;2107064;27;20094;-75
2023/10/13 03:30:46;;;;;;;11.82;1.70;;;;;;;9.04;nan;100666.47;2091947;28;20346;-75
2023/10/13 03:32:06;;;;;;;11.75;1.70;;;;;;;9.04;nan;100666.47;2098008;28;20029;-75
2023/10/13 03:33:11;;;;;;;9.55;1.73;;;;;;;9.04;nan;100671.84;2092293;28;20839;-75
2023/10/13 03:34:13;;;;;;;7.15;1.30;;;;;;;9.04;nan;100665.69;2091285;28;20022;-75
2023/10/13 03:35:24;;;;;;;9.90;1.45;;;;;;;9.02;nan;100670.50;2090338;28;20034;-75
2023/10/13 03:37:12;;;;;;;7.38;1.67;;;;;;;9.01;nan;100658.16;2084921;28;20925;-75
2023/10/13 03:37:54;;;;;;;8.38;1.30;;;;;;;9.02;nan;100663.28;2083201;28;20138;-75
2023/10/13 03:38:56;;;;;;;8.43;1.70;;;;;;;9.03;nan;100674.81;2082207;28;20038;-75
2023/10/13 03:39:59;;;;;;;9.95;1.80;;;;;;;9.02;nan;100667.84;2089746;28;21095;-75
2023/10/13 03:42:18;;;;;;;11.45;1.60;;;;;;;8.94;nan;100666.47;2085566;28;20077;-75
2023/10/13 03:43:22;;;;;;;8.82;1.55;;;;;;;8.98;nan;100672.91;2099451;28;20032;-75
2023/10/13 03:44:30;;;;;;;7.47;1.30;;;;;;;9.00;nan;100676.13;2081520;28;20104;-75
2023/10/13 03:45:46;;;;;;;10.40;1.80;;;;;;;9.03;nan;100669.44;2084163;28;20041;-73
2023/10/13 03:46:54;;;;;;;15.23;1.67;;;;;;;9.03;nan;100664.88;2100181;28;20209;-73
2023/10/13 03:47:55;;;;;;;11.77;2.08;;;;;;;9.08;nan;100663.25;2090749;28;20040;-74
2023/10/13 03:49:01;;;;;;;8.15;1.55;;;;;;;9.10;nan;100661.13;2090199;28;20029;-74
2023/10/13 03:50:15;;;;;;;8.77;1.48;;;;;;;9.09;nan;100662.22;2090609;28;20859;-73
2023/10/13 03:51:17;;;;;;;10.18;2.00;;;;;;;9.07;nan;100661.66;2100443;28;20075;-74
2023/10/13 03:52:22;;;;;;;11.57;1.73;;;;;;;9.07;nan;100664.34;2098017;28;20040;-73
2023/10/13 03:53:25;;;;;;;3.80;1.17;;;;;;;9.05;nan;100667.31;2090317;28;20064;-74
2023/10/13 03:54:30;;;;;;;8.00;1.80;;;;;;;9.03;nan;100659.50;2090607;28;20041;-73
2023/10/13 03:55:35;;;;;;;8.98;1.27;;;;;;;9.03;nan;100653.34;2083701;28;20077;-73
2023/10/13 03:56:44;;;;;;;11.13;1.48;;;;;;;9.00;nan;100652.00;2099766;28;20091;-74
2023/10/13 03:57:51;;;;;;;7.97;1.30;;;;;;;8.97;nan;100654.41;2109703;28;20112;-73
2023/10/13 04:00:23;;;;;;;14.57;2.03;;;;;;;8.92;nan;100663.25;2107595;28;20036;-72
2023/10/13 04:02:52;;;;;;;7.78;1.90;;;;;;;8.91;nan;100667.00;2102458;28;20037;-72
2023/10/13 04:04:03;;;;;;;7.50;1.90;;;;;;;8.90;nan;100676.13;2092328;28;20757;-72
2023/10/13 04:05:09;;;;;;;6.68;1.38;;;;;;;8.91;nan;100677.72;2093579;28;20092;-72
2023/10/13 04:06:18;;;;;;;6.35;1.63;;;;;;;8.91;nan;100675.03;2100896;28;20267;-73
2023/10/13 04:17:15;;;;;;;8.02;2.00;;;;;;;8.94;nan;100665.66;2099093;28;20216;-73
2023/10/13 04:18:50;;;;;;;6.55;1.30;;;;;;;8.94;nan;100662.97;2091746;28;20050;-72
2023/10/13 04:20:27;;;;;;;;;;;;;;;8.89;nan;100657.59;2105643;28;20742;-72
2023/10/13 04:29:45;;;;;;;13.05;1.77;;;;;;;8.85;nan;100661.88;2093173;28;20032;-72
2023/10/13 04:32:02;;;;;;;8.73;1.60;;;;;;;8.83;nan;100659.47;2094630;28;20041;-72
2023/10/13 04:33:35;;;;;;;7.95;1.88;;;;;;;8.81;nan;100651.69;2083801;28;20214;-72
2023/10/13 04:34:38;;;;;;;11.88;2.22;;;;;;;8.80;nan;100644.72;2100616;28;20302;-72
2023/10/13 04:35:47;;;;;;;11.60;2.10;;;;;;;8.80;nan;100646.59;2100059;28;21202;-72
2023/10/13 04:36:55;;;;;;;6.90;2.25;;;;;;;8.74;nan;100640.41;2100176;28;20219;-73
2023/10/13 04:38:01;;;;;;;8.75;2.08;;;;;;;8.72;nan;100649.78;2098768;28;20761;-74
2023/10/13 04:40:10;;;;;;;10.00;1.67;;;;;;;8.72;nan;100647.09;2091885;28;20251;-73
2023/10/13 04:41:22;;;;;;;9.57;2.13;;;;;;;8.73;nan;100654.06;2107650;28;20212;-77
2023/10/13 04:42:49;;;;;;;10.10;2.17;;;;;;;8.75;nan;100665.34;2104019;28;21053;-76
2023/10/13 04:45:38;;;;;;;12.75;1.77;;;;;;;8.78;nan;100660.25;2075626;28;20256;-76
2023/10/13 04:47:57;;;;;;;8.52;2.03;;;;;;;8.79;nan;100669.91;2108782;28;20045;-74
2023/10/13 04:49:09;;;;;;;8.73;2.63;;;;;;;8.76;nan;100664.25;2099992;28;20039;-75
2023/10/13 04:50:22;;;;;;;11.57;1.80;;;;;;;8.76;nan;100670.44;2100540;28;20033;-76
2023/10/13 04:52:45;;;;;;;10.60;1.60;;;;;;;8.75;nan;100668.03;2094585;28;20220;-76
2023/10/13 04:53:03;;;;;;;4.90;1.88;;;;;;;8.73;nan;100665.63;2094693;28;20360;-76
2023/10/13 04:54:25;;;;;;;7.38;1.60;;;;;;;8.75;nan;100668.03;2083071;28;21138;-77
2023/10/13 04:55:48;;;;;;;14.00;2.40;;;;;;;8.73;nan;100670.16;2110141;27;20328;-76
2023/10/13 04:56:59;;;;;;;12.35;2.63;;;;;;;8.71;nan;100662.38;2107704;28;20143;-76
2023/10/13 04:58:11;;;;;;;8.48;2.30;;;;;;;8.73;nan;100665.63;2102100;28;20025;-75
2023/10/13 04:59:35;;;;;;;11.43;2.00;;;;;;;8.76;nan;100673.13;2100503;28;20244;-75
2023/10/13 05:01:16;;;;;;;8.25;1.98;;;;;;;8.78;nan;100667.50;2097489;28;20103;-75
2023/10/13 05:44:37;;;;;;;6.85;2.05;;;;;;;9.46;nan;100641.31;2091468;28;20279;-76
2023/10/13 05:47:36;;;;;;;8.82;2.22;;;;;;;9.58;nan;100646.38;2094218;28;20033;-76
2023/10/13 05:48:41;;;;;;;10.45;2.00;;;;;;;9.67;nan;100643.97;2106521;28;20032;-76
2023/10/13 05:50:05;;;;;;;11.40;2.20;;;;;;;9.73;nan;100648.25;2098047;28;21308;-76
2023/10/13 06:29:19;;;;;;;7.28;2.28;;;;;;;13.21;nan;100679.47;2106720;28;20771;-76
2023/10/13 06:30:24;;;;;;;10.38;2.60;;;;;;;13.53;nan;100677.94;2090506;28;20084;-77
2023/10/13 06:31:28;;;;;;;9.68;2.20;;;;;;;13.82;nan;100676.91;2083329;28;20041;-76
2023/10/13 06:32:29;;;;;;;8.40;2.17;;;;;;;14.09;nan;100673.44;2080835;28;20029;-77
2023/10/13 06:33:35;;;;;;;9.27;1.77;;;;;;;14.31;nan;100680.88;2096901;27;20140;-76
2023/10/13 06:34:46;;;;;;;8.75;2.40;;;;;;;14.58;nan;100682.81;2109371;28;20024;-77
2023/10/13 06:35:50;;;;;;;7.65;2.30;;;;;;;14.91;nan;100678.06;2107249;27;21019;-77
2023/10/13 06:36:54;;;;;;;4.60;1.95;;;;;;;15.09;nan;100680.91;2106289;28;20795;-77
2023/10/13 06:38:00;;;;;;;11.98;2.30;;;;;;;15.27;nan;100685.34;2117026;27;20032;-77
2023/10/13 06:39:34;;;;;;;9.38;2.85;;;;;;;15.44;nan;100687.38;2123375;27;20996;-76
2023/10/13 06:40:38;;;;;;;7.05;2.30;;;;;;;15.61;nan;100678.59;2090966;28;20026;-76
2023/10/13 06:41:43;;;;;;;7.32;2.00;;;;;;;15.85;nan;100679.06;2087537;28;20033;-77
2023/10/13 06:42:45;;;;;;;6.90;2.17;;;;;;;16.12;nan;100682.72;2098904;28;20033;-77
2023/10/13 06:43:58;;;;;;;5.78;2.00;;;;;;;16.37;nan;100675.81;2099017;28;20036;-77
2023/10/13 06:45:08;;;;;;;6.35;2.15;;;;;;;16.58;nan;100676.00;2104064;28;20052;-77
2023/10/13 06:46:20;;;;;;;10.13;2.63;;;;;;;16.60;nan;100669.16;2100916;28;20626;-77
2023/10/13 06:47:27;;;;;;;8.60;2.30;;;;;;;16.67;nan;100676.81;2105725;28;20770;-77
2023/10/13 06:48:34;;;;;;;10.32;2.35;;;;;;;16.72;nan;100678.59;2098219;28;20029;-77
2023/10/13 06:49:39;;;;;;;8.50;2.22;;;;;;;16.71;nan;100677.81;2099519;28;20923;-77
2023/10/13 06:50:52;;;;;;;6.30;2.70;;;;;;;16.81;nan;100672.09;2114925;27;20059;-76
2023/10/13 06:51:53;;;;;;;9.13;2.25;;;;;;;16.85;nan;100674.97;2115042;28;20017;-76
2023/10/13 06:53:01;;;;;;;8.68;2.38;;;;;;;16.88;nan;100666.19;2106600;28;20040;-76
2023/10/13 06:54:08;;;;;;;6.20;2.15;;;;;;;17.01;nan;100675.31;2107017;28;20036;-76
2023/10/13 06:55:17;;;;;;;7.18;2.65;;;;;;;17.29;nan;100673.88;2106638;28;20043;-76
2023/10/13 06:56:22;;;;;;;11.55;2.45;;;;;;;17.41;nan;100678.66;2114157;28;20032;-76
2023/10/13 06:57:24;;;;;;;10.48;2.88;;;;;;;17.28;nan;100672.28;2115405;28;20016;-76
2023/10/13 06:58:27;;;;;;;9.18;3.03;;;;;;;17.41;nan;100672.44;2105949;28;20029;-76
2023/10/13 06:59:32;;;;;;;16.70;3.47;;;;;;;17.53;nan;100670.66;2098394;28;20037;-77
2023/10/13 07:00:38;;;;;;;7.82;2.55;;;;;;;17.81;nan;100667.56;2098458;28;20025;-76
2023/10/13 07:01:44;;;;;;;7.22;2.20;;;;;;;17.97;nan;100667.84;2099659;28;20769;-76
2023/10/13 07:02:47;;;;;;;11.50;2.55;;;;;;;17.94;nan;100671.22;2097484;28;20036;-77
2023/10/13 07:04:00;;;;;;;7.72;2.20;;;;;;;18.00;nan;100672.63;2083351;28;20104;-76
2023/10/13 07:05:11;;;;;;;7.70;2.47;;;;;;;17.96;nan;100667.03;2087050;28;20772;-77
2023/10/13 07:06:19;;;;;;;6.22;1.88;;;;;;;17.95;nan;100670.91;2106748;27;20071;-77
2023/10/13 07:07:22;;;;;;;11.48;2.45;;;;;;;18.02;nan;100660.28;2099265;28;20740;-76
2023/10/13 07:08:25;;;;;;;10.65;2.60;;;;;;;18.12;nan;100671.94;2091470;28;20061;-77
2023/10/13 07:12:01;;;;;;;8.23;2.40;;;;;;;18.20;nan;100661.03;2088594;28;20115;-77
2023/10/13 07:13:07;;;;;;;10.90;2.97;;;;;;;18.26;nan;100659.72;2097614;28;20052;-76
2023/10/13 07:14:16;;;;;;;7.82;2.78;;;;;;;18.28;nan;100654.75;2082962;28;20120;-76
2023/10/13 07:15:26;;;;;;;11.95;2.13;;;;;;;18.41;nan;100658.38;2094001;28;20025;-76
2023/10/13 07:16:35;;;;;;;7.75;2.30;;;;;;;18.71;nan;100656.41;2098959;28;20825;-76